Time;durP1;ratioP1;P1;durP2;ratioP2;P2;SDS_P1;SDS_P2;PMS_P1;PMS_P2;Temp;Humidity;BMP_temperature;BMP_pressure;BME280_temperature;BME280_humidity;BME280_pressure;Samples;Min_cycle;Max_cycle;Signal;HPM_P1;HPM_P2
2023/06/03 00:00:41;;;;;;;21.90;13.02;;;13.00;86.70;;;;;;5042470;28;20021;-78
2023/06/03 00:03:13;;;;;;;29.98;13.50;;;13.00;86.70;;;;;;5038478;28;20037;-76
2023/06/03 00:05:39;;;;;;;24.85;13.98;;;13.00;86.80;;;;;;5036720;28;20421;-76
2023/06/03 00:08:05;;;;;;;25.23;14.77;;;13.00;86.90;;;;;;5030798;28;20068;-76
2023/06/03 00:10:30;;;;;;;24.50;14.00;;;12.90;87.10;;;;;;5037791;28;20660;-77
2023/06/03 00:12:56;;;;;;;24.63;13.38;;;12.90;87.10;;;;;;5039374;28;20466;-76
2023/06/03 00:15:22;;;;;;;21.88;14.85;;;12.90;87.10;;;;;;5034020;28;20425;-76
2023/06/03 00:17:47;;;;;;;26.33;15.82;;;12.90;87.40;;;;;;5043078;28;20584;-77
2023/06/03 00:20:14;;;;;;;23.15;15.15;;;12.90;87.50;;;;;;5041380;28;20500;-77
2023/06/03 00:22:40;;;;;;;24.77;15.27;;;12.90;87.40;;;;;;5033590;28;20110;-77
2023/06/03 00:25:07;;;;;;;24.42;15.18;;;12.90;87.40;;;;;;5038910;28;20029;-77
2023/06/03 00:27:36;;;;;;;25.67;15.35;;;12.90;87.50;;;;;;5040462;28;20049;-76
2023/06/03 00:30:03;;;;;;;23.27;16.42;;;12.90;87.50;;;;;;5041985;28;20032;-76
2023/06/03 00:32:29;;;;;;;26.25;16.30;;;12.90;87.60;;;;;;5040449;28;20111;-77
2023/06/03 00:34:54;;;;;;;24.95;16.45;;;12.80;87.60;;;;;;5041942;28;20486;-76
2023/06/03 00:37:20;;;;;;;26.60;16.13;;;12.90;87.60;;;;;;5031975;28;20072;-77
2023/06/03 00:39:46;;;;;;;32.75;18.02;;;12.80;87.60;;;;;;5039769;28;20099;-78
2023/06/03 00:42:11;;;;;;;27.88;16.90;;;12.80;87.60;;;;;;5035832;28;20520;-77
2023/06/03 00:44:37;;;;;;;25.98;17.35;;;12.80;87.60;;;;;;5039331;28;20044;-75
2023/06/03 00:47:03;;;;;;;24.83;17.85;;;12.80;87.90;;;;;;5036683;28;20045;-77
2023/06/03 00:49:29;;;;;;;27.02;17.45;;;12.80;87.90;;;;;;5033499;28;20025;-76
2023/06/03 00:51:56;;;;;;;29.90;18.30;;;12.80;87.80;;;;;;5038815;28;20060;-76
2023/06/03 00:54:22;;;;;;;24.38;18.48;;;12.80;87.90;;;;;;5043382;28;20424;-77
2023/06/03 00:56:49;;;;;;;25.08;19.20;;;12.80;88.20;;;;;;5036594;28;20033;-77
2023/06/03 00:59:16;;;;;;;26.27;19.77;;;12.80;88.30;;;;;;5038544;28;20428;-76
2023/06/03 01:01:42;;;;;;;30.40;20.15;;;12.80;88.40;;;;;;5029745;28;20071;-77
2023/06/03 01:04:12;;;;;;;28.92;19.73;;;12.80;88.40;;;;;;5039578;28;20041;-76
2023/06/03 01:06:58;;;;;;;24.30;18.40;;;12.80;88.30;;;;;;5042507;28;20059;-76
2023/06/03 01:09:36;;;;;;;28.55;20.00;;;12.70;88.40;;;;;;5032948;28;20026;-77
2023/06/03 01:12:31;;;;;;;28.73;20.40;;;12.70;88.50;;;;;;5034027;28;20045;-76
2023/06/03 01:15:04;;;;;;;29.05;20.27;;;12.70;88.70;;;;;;5036112;28;20107;-76
2023/06/03 01:17:36;;;;;;;27.50;19.60;;;12.80;88.70;;;;;;5040778;28;20063;-75
2023/06/03 01:20:03;;;;;;;27.02;20.45;;;12.70;88.60;;;;;;5040579;28;20091;-76
2023/06/03 01:22:36;;;;;;;26.38;19.90;;;12.70;88.60;;;;;;5043593;28;20048;-76
2023/06/03 01:25:05;;;;;;;35.33;22.30;;;12.70;88.70;;;;;;5041008;28;20064;-76
2023/06/03 01:27:30;;;;;;;29.45;21.65;;;12.70;88.80;;;;;;5038517;28;20041;-77
2023/06/03 01:29:56;;;;;;;30.10;22.17;;;12.70;88.90;;;;;;5040805;28;20351;-76
2023/06/03 01:32:23;;;;;;;29.60;22.05;;;12.70;88.90;;;;;;5040688;28;20041;-76
2023/06/03 01:34:50;;;;;;;29.85;21.80;;;12.60;88.90;;;;;;5043533;28;20048;-77
2023/06/03 01:37:15;;;;;;;30.95;22.40;;;12.60;89.10;;;;;;5041705;28;20512;-76
2023/06/03 01:39:42;;;;;;;30.90;23.45;;;12.70;89.10;;;;;;5031100;28;20032;-78
2023/06/03 01:42:10;;;;;;;28.25;22.23;;;12.60;89.00;;;;;;5042163;28;20090;-76
2023/06/03 01:44:36;;;;;;;33.25;23.48;;;12.60;89.20;;;;;;5039726;28;20025;-77
2023/06/03 01:47:02;;;;;;;27.00;22.25;;;12.60;89.30;;;;;;5040817;28;20039;-76
2023/06/03 01:49:31;;;;;;;36.20;25.15;;;12.60;89.40;;;;;;5045773;28;20029;-76
2023/06/03 01:52:01;;;;;;;32.05;23.48;;;12.60;89.30;;;;;;5041521;28;20033;-76
2023/06/03 01:54:28;;;;;;;31.77;23.67;;;12.60;89.30;;;;;;5042554;28;20032;-76
2023/06/03 01:56:55;;;;;;;33.03;22.60;;;12.60;89.40;;;;;;5047373;28;20083;-76
2023/06/03 01:59:25;;;;;;;30.27;23.00;;;12.60;89.40;;;;;;5046071;28;20452;-76
2023/06/03 02:01:55;;;;;;;29.15;23.38;;;12.60;89.40;;;;;;5043381;28;20464;-77
2023/06/03 02:04:21;;;;;;;33.70;24.38;;;12.60;89.50;;;;;;5044459;28;20029;-77
2023/06/03 02:06:50;;;;;;;33.88;24.35;;;12.60;89.60;;;;;;5038170;28;20564;-76
2023/06/03 02:09:16;;;;;;;30.63;24.55;;;12.60;89.70;;;;;;5037070;28;20470;-76
2023/06/03 02:11:45;;;;;;;30.13;24.42;;;12.60;89.90;;;;;;5045685;28;20425;-77
2023/06/03 02:14:11;;;;;;;33.38;24.83;;;12.50;89.90;;;;;;5043255;28;20737;-77
2023/06/03 02:16:37;;;;;;;32.38;25.20;;;12.50;89.90;;;;;;5034895;28;20025;-77
2023/06/03 02:19:11;;;;;;;37.35;26.13;;;12.50;90.00;;;;;;5033541;28;20049;-77
2023/06/03 02:21:38;;;;;;;33.45;25.52;;;12.50;90.10;;;;;;5039994;28;20623;-77
2023/06/03 02:24:05;;;;;;;33.38;26.08;;;12.50;90.20;;;;;;5045516;28;20032;-75
2023/06/03 02:26:31;;;;;;;40.17;27.55;;;12.50;90.10;;;;;;5037339;28;20116;-76
2023/06/03 02:28:57;;;;;;;36.08;27.70;;;12.50;90.20;;;;;;5037831;28;20108;-76
2023/06/03 02:31:22;;;;;;;35.50;26.63;;;12.40;90.40;;;;;;5035168;28;20029;-75
2023/06/03 02:33:48;;;;;;;39.72;28.42;;;12.40;90.50;;;;;;5042048;28;20033;-75
2023/06/03 02:36:16;;;;;;;34.92;27.70;;;12.50;90.40;;;;;;5040493;28;20516;-75
2023/06/03 02:38:42;;;;;;;37.65;30.77;;;12.40;90.40;;;;;;5040905;28;20491;-77
2023/06/03 02:41:08;;;;;;;41.17;29.85;;;12.40;90.50;;;;;;5044421;28;20040;-76
2023/06/03 02:43:33;;;;;;;40.38;31.20;;;12.40;90.70;;;;;;5038864;28;20025;-75
2023/06/03 02:45:59;;;;;;;44.53;32.83;;;12.30;90.70;;;;;;5040935;28;20433;-76
2023/06/03 02:48:25;;;;;;;38.97;32.63;;;12.40;90.80;;;;;;5036026;28;20037;-76
2023/06/03 02:50:51;;;;;;;39.83;30.83;;;12.30;90.80;;;;;;5046033;28;20393;-76
2023/06/03 02:53:17;;;;;;;38.58;31.48;;;12.40;90.90;;;;;;5043625;28;20097;-76
2023/06/03 02:55:44;;;;;;;37.75;30.00;;;12.30;90.90;;;;;;5037719;28;20432;-75
2023/06/03 02:58:12;;;;;;;41.53;32.50;;;12.40;90.90;;;;;;5036924;28;20093;-76
2023/06/03 03:00:39;;;;;;;39.20;31.48;;;12.30;90.90;;;;;;5035792;28;20538;-75
2023/06/03 03:03:04;;;;;;;41.42;31.85;;;12.30;91.00;;;;;;5037715;28;20078;-75
2023/06/03 03:05:30;;;;;;;41.15;32.35;;;12.40;90.90;;;;;;5039560;28;20029;-75
2023/06/03 03:07:58;;;;;;;40.45;31.80;;;12.40;90.90;;;;;;5042181;28;20551;-76
2023/06/03 03:10:25;;;;;;;41.72;32.47;;;12.30;90.90;;;;;;5038813;28;20033;-76
2023/06/03 03:12:50;;;;;;;43.92;33.25;;;12.30;91.00;;;;;;5040391;28;20055;-76
2023/06/03 03:15:16;;;;;;;41.78;31.98;;;12.30;91.20;;;;;;5042502;28;20020;-76
2023/06/03 03:17:42;;;;;;;40.70;31.73;;;12.30;91.20;;;;;;5034598;28;20033;-78
2023/06/03 03:20:08;;;;;;;36.08;30.88;;;12.30;91.20;;;;;;5045136;28;20028;-77
2023/06/03 03:22:39;;;;;;;40.67;34.28;;;12.30;91.10;;;;;;5043880;28;20473;-77
2023/06/03 03:25:06;;;;;;;39.70;31.30;;;12.40;91.20;;;;;;5040603;28;20374;-76
2023/06/03 03:27:32;;;;;;;39.72;31.42;;;12.30;91.10;;;;;;5032907;28;20033;-77
2023/06/03 03:30:01;;;;;;;38.63;32.30;;;12.30;91.10;;;;;;5040737;28;20040;-77
2023/06/03 03:32:27;;;;;;;42.88;32.25;;;12.30;91.10;;;;;;5037850;28;20033;-76
2023/06/03 03:35:11;;;;;;;39.85;31.75;;;12.30;91.20;;;;;;5044825;28;20049;-75
2023/06/03 03:37:37;;;;;;;42.93;33.33;;;12.30;91.30;;;;;;5043582;28;20575;-75
2023/06/03 03:40:05;;;;;;;44.20;33.08;;;12.30;91.20;;;;;;5039727;28;20580;-77
2023/06/03 03:42:31;;;;;;;36.40;31.13;;;12.30;91.20;;;;;;5045394;28;20053;-77
2023/06/03 03:44:59;;;;;;;44.05;32.50;;;12.30;91.20;;;;;;5040544;28;20028;-76
2023/06/03 03:47:25;;;;;;;42.67;32.33;;;12.30;91.10;;;;;;5038996;28;20082;-76
2023/06/03 03:49:50;;;;;;;39.72;31.88;;;12.30;91.20;;;;;;5046404;28;20029;-75
2023/06/03 03:52:24;;;;;;;40.25;32.83;;;12.30;91.20;;;;;;5036357;28;20198;-75
2023/06/03 03:54:50;;;;;;;40.40;30.83;;;12.40;91.10;;;;;;5039565;28;20021;-76
2023/06/03 03:57:16;;;;;;;39.65;30.50;;;12.40;91.10;;;;;;5044885;28;20543;-76
2023/06/03 03:59:42;;;;;;;38.30;31.10;;;12.40;91.00;;;;;;5042545;28;20024;-77
2023/06/03 04:02:08;;;;;;;34.20;30.15;;;12.40;90.90;;;;;;5041280;28;20041;-75
2023/06/03 04:04:44;;;;;;;39.67;31.33;;;12.40;90.70;;;;;;5040759;28;20045;-77
2023/06/03 04:07:14;;;;;;;39.47;31.52;;;12.40;90.90;;;;;;5041104;28;20037;-76
2023/06/03 04:09:42;;;;;;;42.47;31.58;;;12.50;90.90;;;;;;5044813;28;20051;-75
2023/06/03 04:12:29;;;;;;;40.00;30.67;;;12.50;90.90;;;;;;5039575;28;20137;-76
2023/06/03 04:14:57;;;;;;;36.65;30.55;;;12.50;90.70;;;;;;5042716;28;20035;-76
2023/06/03 04:17:25;;;;;;;37.05;30.67;;;12.50;90.70;;;;;;5041517;28;20489;-76
2023/06/03 04:19:52;;;;;;;39.30;30.55;;;12.60;90.70;;;;;;5036523;28;20057;-75
2023/06/03 04:22:22;;;;;;;39.38;30.05;;;12.60;90.60;;;;;;5035507;28;20489;-76
2023/06/03 04:24:58;;;;;;;37.13;29.55;;;12.60;90.50;;;;;;5043273;28;20535;-76
2023/06/03 04:27:24;;;;;;;37.03;29.63;;;12.60;90.40;;;;;;5033442;28;20214;-76
2023/06/03 04:29:50;;;;;;;37.15;28.83;;;12.70;90.30;;;;;;5042671;28;20544;-76
2023/06/03 04:32:16;;;;;;;36.05;29.02;;;12.70;90.10;;;;;;5039109;28;20049;-78
2023/06/03 04:34:54;;;;;;;35.75;28.48;;;12.70;90.00;;;;;;5037126;28;20429;-78
2023/06/03 04:37:21;;;;;;;37.85;29.00;;;12.70;90.00;;;;;;5039676;28;20131;-76
2023/06/03 04:39:48;;;;;;;37.65;27.77;;;12.80;89.90;;;;;;5041057;28;20104;-77
2023/06/03 04:42:15;;;;;;;34.63;25.90;;;12.90;89.70;;;;;;5031918;28;20037;-77
2023/06/03 04:44:42;;;;;;;32.08;26.77;;;12.90;89.50;;;;;;5043212;28;20139;-77
2023/06/03 04:47:11;;;;;;;32.15;26.80;;;13.00;89.50;;;;;;5040716;28;20049;-78
2023/06/03 04:49:40;;;;;;;30.10;25.33;;;13.00;89.40;;;;;;5036844;28;20029;-77
2023/06/03 04:52:10;;;;;;;32.13;25.67;;;13.10;89.30;;;;;;5041383;28;20183;-78
2023/06/03 04:54:37;;;;;;;35.13;25.48;;;13.10;89.20;;;;;;5037234;28;20127;-78
2023/06/03 04:57:03;;;;;;;30.52;24.45;;;13.10;89.20;;;;;;5038406;28;20040;-75
2023/06/03 04:59:29;;;;;;;30.67;24.08;;;13.10;89.10;;;;;;5039952;28;20377;-76
2023/06/03 05:01:55;;;;;;;28.92;24.13;;;13.20;88.80;;;;;;5037506;28;20480;-76
2023/06/03 05:04:22;;;;;;;30.35;21.85;;;13.30;88.80;;;;;;5034120;28;20381;-75
2023/06/03 05:06:48;;;;;;;28.30;22.58;;;13.40;88.20;;;;;;5040740;28;20044;-75
2023/06/03 05:09:15;;;;;;;28.23;23.40;;;13.50;88.20;;;;;;5037347;28;20026;-76
2023/06/03 05:11:42;;;;;;;26.35;19.38;;;13.60;88.00;;;;;;5040693;28;20037;-76
2023/06/03 05:14:08;;;;;;;23.30;18.65;;;14.30;86.90;;;;;;5042845;28;21859;-76
2023/06/03 05:16:37;;;;;;;20.83;15.57;;;15.50;82.70;;;;;;5043263;28;20033;-76
2023/06/03 05:19:03;;;;;;;17.65;13.35;;;16.60;78.20;;;;;;5038269;28;20036;-75
2023/06/03 05:21:29;;;;;;;21.08;12.85;;;17.60;73.80;;;;;;5036626;28;20524;-75
2023/06/03 05:23:54;;;;;;;19.45;13.43;;;18.00;71.30;;;;;;5039342;28;20102;-75
2023/06/03 05:26:20;;;;;;;21.88;12.93;;;18.40;69.90;;;;;;5044802;28;20036;-76
2023/06/03 05:28:48;;;;;;;18.60;12.63;;;18.50;68.70;;;;;;5044591;28;20511;-76
2023/06/03 05:31:14;;;;;;;18.20;12.07;;;18.60;68.00;;;;;;5040782;28;20034;-75
2023/06/03 05:33:41;;;;;;;17.85;12.32;;;18.80;67.00;;;;;;5043619;28;20542;-75
2023/06/03 05:36:07;;;;;;;18.10;11.77;;;18.90;66.80;;;;;;5040171;28;20033;-74
2023/06/03 05:38:33;;;;;;;18.33;11.73;;;18.90;65.50;;;;;;5039049;28;20021;-75
2023/06/03 05:41:00;;;;;;;18.25;10.93;;;19.10;65.70;;;;;;5038902;28;20155;-77
2023/06/03 05:43:25;;;;;;;17.83;11.32;;;19.10;65.40;;;;;;5046501;28;20040;-76
2023/06/03 05:45:51;;;;;;;16.42;11.27;;;18.80;65.60;;;;;;5035243;28;20029;-75
2023/06/03 05:48:17;;;;;;;17.60;11.05;;;18.80;66.00;;;;;;5036927;28;20033;-75
2023/06/03 05:50:51;;;;;;;17.77;12.30;;;18.60;65.60;;;;;;5040165;28;20457;-77
2023/06/03 05:53:21;;;;;;;19.10;11.10;;;18.00;67.40;;;;;;5035620;28;20084;-76
2023/06/03 05:55:51;;;;;;;18.08;12.02;;;17.40;70.30;;;;;;5045304;28;20021;-76
2023/06/03 05:58:18;;;;;;;17.98;11.60;;;17.00;71.00;;;;;;5047259;28;20047;-75
2023/06/03 06:00:43;;;;;;;16.92;11.75;;;16.70;71.80;;;;;;5032198;28;20576;-78
2023/06/03 06:03:09;;;;;;;19.65;12.10;;;16.60;72.10;;;;;;5043183;28;20043;-76
2023/06/03 06:05:35;;;;;;;20.73;12.23;;;16.30;72.50;;;;;;5040822;28;20296;-77
2023/06/03 06:08:01;;;;;;;23.08;12.55;;;16.20;73.60;;;;;;5036675;28;20120;-75
2023/06/03 06:10:27;;;;;;;19.90;11.27;;;16.30;73.40;;;;;;5042439;28;20028;-75
2023/06/03 06:12:52;;;;;;;19.00;11.27;;;16.10;72.90;;;;;;5043534;28;20056;-75
2023/06/03 06:15:18;;;;;;;19.50;11.70;;;16.10;72.30;;;;;;5042601;28;20083;-76
2023/06/03 06:17:43;;;;;;;16.70;10.95;;;16.10;72.80;;;;;;5041116;28;20045;-76
2023/06/03 06:20:12;;;;;;;17.10;11.32;;;16.40;73.10;;;;;;5048678;28;20040;-75
2023/06/03 06:22:38;;;;;;;19.58;10.85;;;16.60;72.00;;;;;;5045805;28;20044;-76
2023/06/03 06:25:06;;;;;;;17.13;11.68;;;16.80;70.90;;;;;;5046822;28;20036;-76
2023/06/03 06:27:32;;;;;;;17.25;10.65;;;16.90;71.00;;;;;;5036666;28;20485;-77
2023/06/03 06:29:58;;;;;;;17.58;11.10;;;16.60;70.90;;;;;;5040699;28;20468;-74
2023/06/03 06:32:25;;;;;;;18.80;10.57;;;16.60;70.40;;;;;;5040091;28;20045;-74
2023/06/03 06:34:52;;;;;;;17.92;10.80;;;16.70;71.00;;;;;;5038340;28;20083;-75
2023/06/03 06:37:21;;;;;;;16.73;10.15;;;16.90;69.90;;;;;;5045382;28;20466;-75
2023/06/03 06:39:47;;;;;;;19.98;11.18;;;17.10;69.70;;;;;;5042822;28;20033;-75
2023/06/03 06:42:13;;;;;;;21.55;10.85;;;17.20;69.30;;;;;;5039192;28;20574;-77
2023/06/03 06:44:50;;;;;;;19.25;10.60;;;17.40;68.20;;;;;;5045788;28;20496;-85
2023/06/03 06:47:42;;;;;;;19.40;11.05;;;17.40;68.50;;;;;;5045770;28;20091;-76
2023/06/03 06:50:18;;;;;;;16.15;9.70;;;17.60;68.40;;;;;;5035466;28;20370;-76
2023/06/03 06:52:43;;;;;;;13.40;8.90;;;17.90;66.70;;;;;;5038624;28;20543;-78
2023/06/03 06:55:45;;;;;;;15.63;9.45;;;18.00;66.10;;;;;;5040671;28;20022;-76
2023/06/03 06:58:11;;;;;;;15.85;9.65;;;17.90;65.20;;;;;;5033402;28;20040;-76
2023/06/03 07:00:38;;;;;;;19.95;10.05;;;17.90;65.60;;;;;;5043253;28;20029;-76
2023/06/03 07:03:13;;;;;;;16.42;9.55;;;18.10;65.00;;;;;;5038855;28;20535;-77
2023/06/03 07:05:38;;;;;;;16.05;9.82;;;18.20;64.50;;;;;;5037879;28;20029;-77
2023/06/03 07:08:04;;;;;;;13.00;8.38;;;18.30;64.40;;;;;;5032182;28;20501;-76
2023/06/03 07:10:30;;;;;;;15.82;8.65;;;18.40;63.10;;;;;;5043538;28;20108;-77
2023/06/03 07:12:56;;;;;;;13.48;8.15;;;18.60;63.50;;;;;;5040669;28;20596;-77
2023/06/03 07:15:23;;;;;;;14.82;7.57;;;18.50;62.50;;;;;;5040613;28;20044;-77
2023/06/03 07:17:53;;;;;;;15.93;8.45;;;18.80;62.50;;;;;;5036054;28;20210;-77
2023/06/03 07:20:21;;;;;;;15.70;7.60;;;19.00;61.50;;;;;;5037061;28;20466;-77
2023/06/03 07:22:47;;;;;;;15.80;8.35;;;19.10;61.10;;;;;;5043331;28;20037;-76
2023/06/03 07:25:22;;;;;;;12.55;7.32;;;19.30;61.00;;;;;;5042751;28;20128;-77
2023/06/03 07:27:48;;;;;;;14.73;7.47;;;19.50;60.10;;;;;;5042564;28;20039;-76
2023/06/03 07:30:16;;;;;;;12.15;7.15;;;19.50;58.80;;;;;;5037705;28;20415;-76
2023/06/03 07:32:43;;;;;;;11.88;6.40;;;19.50;58.30;;;;;;5038560;28;20072;-76
2023/06/03 07:35:10;;;;;;;17.08;7.25;;;19.60;57.50;;;;;;5040021;28;20374;-77
2023/06/03 07:37:36;;;;;;;11.80;7.13;;;19.60;57.40;;;;;;5033317;28;20037;-76
2023/06/03 07:40:08;;;;;;;15.80;6.90;;;19.80;57.40;;;;;;5041500;28;20508;-76
2023/06/03 07:42:36;;;;;;;11.90;6.32;;;20.00;57.20;;;;;;5035776;28;20529;-76
2023/06/03 07:45:02;;;;;;;11.32;6.82;;;20.10;56.80;;;;;;5041949;28;20071;-77
2023/06/03 07:47:28;;;;;;;10.73;5.65;;;20.30;54.90;;;;;;5033396;28;20038;-77
2023/06/03 07:49:55;;;;;;;13.98;7.32;;;20.30;55.60;;;;;;5035205;28;20501;-77
2023/06/03 07:52:21;;;;;;;12.55;5.97;;;20.20;55.20;;;;;;5036333;28;20080;-77
2023/06/03 07:54:48;;;;;;;12.45;6.72;;;19.90;54.30;;;;;;5042866;28;20064;-77
2023/06/03 07:57:14;;;;;;;12.35;6.60;;;20.00;55.50;;;;;;5039693;28;20124;-77
2023/06/03 07:59:50;;;;;;;14.02;6.15;;;20.30;54.70;;;;;;5044610;28;20035;-77
2023/06/03 08:02:16;;;;;;;9.02;5.30;;;20.60;55.00;;;;;;5039447;28;20037;-77
2023/06/03 08:04:41;;;;;;;8.63;5.13;;;20.50;52.80;;;;;;5041665;28;20148;-77
2023/06/03 08:07:07;;;;;;;10.88;4.88;;;20.50;52.70;;;;;;5043905;28;20041;-78
2023/06/03 08:09:35;;;;;;;12.25;5.20;;;20.20;53.30;;;;;;5043626;28;20473;-73
2023/06/03 08:12:03;;;;;;;10.43;5.45;;;20.60;52.90;;;;;;5032256;28;20410;-73
2023/06/03 08:14:36;;;;;;;12.52;5.25;;;20.80;51.10;;;;;;5044607;28;20025;-73
2023/06/03 08:17:13;;;;;;;9.77;4.53;;;20.80;50.70;;;;;;5034787;28;20041;-73
2023/06/03 08:19:43;;;;;;;13.13;5.25;;;20.90;50.70;;;;;;5040337;28;20036;-73
2023/06/03 08:22:34;;;;;;;9.90;4.80;;;21.00;51.00;;;;;;5037654;28;20441;-73
2023/06/03 08:24:59;;;;;;;10.98;4.43;;;20.90;48.80;;;;;;5032007;28;20033;-73
2023/06/03 08:27:25;;;;;;;9.98;4.25;;;21.10;50.70;;;;;;5034458;28;20548;-73
2023/06/03 08:29:52;;;;;;;10.55;4.38;;;21.30;48.90;;;;;;5041981;28;20033;-74
2023/06/03 08:32:17;;;;;;;8.75;4.30;;;21.30;48.20;;;;;;5041099;28;20501;-73
2023/06/03 08:34:43;;;;;;;9.65;3.85;;;21.10;48.10;;;;;;5035962;28;20426;-73
2023/06/03 08:37:09;;;;;;;10.70;3.97;;;21.20;47.10;;;;;;5045106;28;20033;-72
2023/06/03 08:39:35;;;;;;;8.95;4.07;;;21.30;48.20;;;;;;5039738;28;20342;-72
2023/06/03 08:42:06;;;;;;;9.98;3.97;;;21.30;47.90;;;;;;5032915;28;20045;-72
2023/06/03 08:45:05;;;;;;;11.55;3.75;;;20.90;45.80;;;;;;5042488;28;20029;-72
2023/06/03 08:47:52;;;;;;;7.75;3.50;;;21.00;45.30;;;;;;5034664;28;20048;-72
2023/06/03 08:50:21;;;;;;;7.10;3.03;;;20.60;46.40;;;;;;5035682;28;20112;-72
2023/06/03 08:52:48;;;;;;;7.22;3.67;;;21.00;46.30;;;;;;5041842;28;20588;-72
2023/06/03 08:55:17;;;;;;;8.40;3.08;;;21.30;45.70;;;;;;5029239;28;20413;-73
2023/06/03 08:57:59;;;;;;;8.30;3.38;;;21.50;45.30;;;;;;5040228;28;20445;-74
2023/06/03 09:00:26;;;;;;;8.93;3.78;;;21.80;45.20;;;;;;5038293;28;20029;-73
2023/06/03 09:02:52;;;;;;;9.95;3.85;;;21.80;44.10;;;;;;5041696;28;20041;-73
2023/06/03 09:05:22;;;;;;;8.15;3.35;;;21.40;44.90;;;;;;5041361;28;20045;-73
2023/06/03 09:07:51;;;;;;;7.65;3.78;;;21.70;45.50;;;;;;5028658;28;20046;-73
2023/06/03 09:10:20;;;;;;;7.40;3.22;;;21.80;44.70;;;;;;5034268;28;20025;-73
2023/06/03 09:12:47;;;;;;;8.25;2.97;;;22.30;43.70;;;;;;5036250;28;20132;-73
2023/06/03 09:15:16;;;;;;;8.65;3.50;;;22.60;42.80;;;;;;5040885;28;20473;-71
2023/06/03 09:17:43;;;;;;;7.03;2.97;;;22.60;43.20;;;;;;5036565;28;20037;-73
2023/06/03 09:20:13;;;;;;;10.57;3.70;;;22.50;40.90;;;;;;5042789;28;20025;-72
2023/06/03 09:22:42;;;;;;;7.90;3.28;;;22.60;38.50;;;;;;5033930;28;20049;-72
2023/06/03 09:25:08;;;;;;;8.43;2.85;;;22.90;39.80;;;;;;5042661;28;20025;-71
2023/06/03 09:27:34;;;;;;;6.45;2.78;;;22.10;39.50;;;;;;5030073;28;20124;-71
2023/06/03 09:30:02;;;;;;;7.88;3.20;;;22.30;39.70;;;;;;5027521;28;20029;-70
2023/06/03 09:32:29;;;;;;;7.25;2.95;;;22.50;38.70;;;;;;5025156;28;20068;-69
2023/06/03 09:34:56;;;;;;;8.70;2.78;;;22.20;38.80;;;;;;5028538;28;20080;-70
2023/06/03 09:37:22;;;;;;;20.67;3.67;;;22.50;38.40;;;;;;5028236;28;20037;-70
2023/06/03 09:39:48;;;;;;;7.10;3.28;;;22.60;38.30;;;;;;5029916;28;20048;-71
2023/06/03 09:42:15;;;;;;;7.40;3.35;;;23.00;37.60;;;;;;5027364;28;20232;-71
2023/06/03 09:44:43;;;;;;;6.75;3.10;;;23.00;37.40;;;;;;5032361;28;20063;-71
2023/06/03 09:47:11;;;;;;;7.80;3.00;;;23.10;38.40;;;;;;5025697;28;20489;-70
2023/06/03 09:49:37;;;;;;;8.45;3.22;;;23.20;37.10;;;;;;5026309;28;20463;-71
2023/06/03 09:52:07;;;;;;;7.25;2.60;;;23.10;37.30;;;;;;5025443;28;20045;-70
2023/06/03 09:54:34;;;;;;;8.68;3.08;;;23.00;37.00;;;;;;5027587;28;20088;-70
2023/06/03 09:57:11;;;;;;;6.03;2.72;;;22.70;38.00;;;;;;5025379;28;20033;-70
2023/06/03 09:59:38;;;;;;;7.05;2.63;;;22.50;37.80;;;;;;5028263;28;20036;-72
2023/06/03 10:02:10;;;;;;;6.88;3.20;;;22.20;38.40;;;;;;5028056;28;20068;-71
2023/06/03 10:04:42;;;;;;;8.57;2.80;;;22.40;38.70;;;;;;5029205;28;20036;-70
2023/06/03 10:07:11;;;;;;;11.10;2.92;;;22.80;38.60;;;;;;5029550;28;20112;-70
2023/06/03 10:09:37;;;;;;;11.18;3.45;;;22.80;37.00;;;;;;5039017;28;20430;-71
2023/06/03 10:12:03;;;;;;;7.68;3.08;;;22.60;37.30;;;;;;5036560;28;20389;-70
2023/06/03 10:14:29;;;;;;;6.50;2.97;;;22.80;36.80;;;;;;5043694;28;20052;-71
2023/06/03 10:17:08;;;;;;;5.75;2.72;;;23.20;36.20;;;;;;5037386;28;20206;-70
2023/06/03 10:19:37;;;;;;;9.38;3.33;;;22.80;36.90;;;;;;5043311;28;20047;-71
2023/06/03 10:22:04;;;;;;;10.38;3.38;;;22.20;37.70;;;;;;5045211;28;20040;-71
2023/06/03 10:24:32;;;;;;;13.30;3.50;;;22.60;39.30;;;;;;5039408;28;20156;-70
2023/06/03 10:26:58;;;;;;;9.48;3.10;;;23.10;36.90;;;;;;5037906;28;20041;-70
2023/06/03 10:29:25;;;;;;;6.47;3.10;;;23.60;37.30;;;;;;5038031;28;20037;-70
2023/06/03 10:31:54;;;;;;;7.10;3.20;;;23.80;35.40;;;;;;5042112;28;20033;-71
2023/06/03 10:34:20;;;;;;;8.00;3.53;;;23.70;36.00;;;;;;5038672;28;20033;-70
2023/06/03 10:36:56;;;;;;;7.55;3.22;;;23.50;35.40;;;;;;5043436;28;20045;-69
2023/06/03 10:39:24;;;;;;;9.52;3.13;;;22.70;37.20;;;;;;5041404;28;20100;-72
2023/06/03 10:41:56;;;;;;;8.50;3.20;;;22.80;36.80;;;;;;5040623;28;20048;-70
2023/06/03 10:44:22;;;;;;;8.82;2.80;;;23.40;36.20;;;;;;5043320;28;20018;-70
2023/06/03 10:47:03;;;;;;;11.80;3.10;;;23.70;37.00;;;;;;5039126;28;20052;-72
2023/06/03 10:49:39;;;;;;;7.00;2.75;;;24.10;35.10;;;;;;5038997;28;20052;-72
2023/06/03 10:52:15;;;;;;;10.65;3.50;;;24.40;35.10;;;;;;5032489;28;20512;-72
2023/06/03 10:55:02;;;;;;;12.43;3.70;;;23.60;34.60;;;;;;5041695;28;20383;-72
2023/06/03 10:57:37;;;;;;;7.60;3.33;;;23.40;35.50;;;;;;5039466;28;20041;-72
2023/06/03 11:00:04;;;;;;;9.38;2.85;;;23.00;35.80;;;;;;5042585;28;20028;-73
2023/06/03 11:03:04;;;;;;;7.63;3.67;;;22.90;36.60;;;;;;5038872;28;20934;-72
2023/06/03 11:05:30;;;;;;;6.07;2.70;;;23.00;37.00;;;;;;5041570;28;20031;-71
2023/06/03 11:07:55;;;;;;;8.60;3.50;;;23.10;36.90;;;;;;5042850;28;20051;-71
2023/06/03 11:10:36;;;;;;;9.23;2.90;;;23.70;35.30;;;;;;5039418;28;20446;-73
2023/06/03 11:13:03;;;;;;;8.80;2.75;;;24.10;34.90;;;;;;5041146;28;20057;-72
2023/06/03 11:16:00;;;;;;;8.60;3.47;;;24.10;35.20;;;;;;5038773;28;20368;-72
2023/06/03 11:18:27;;;;;;;8.85;2.88;;;24.30;34.50;;;;;;5042505;28;20063;-72
2023/06/03 11:20:53;;;;;;;8.45;3.10;;;24.50;33.80;;;;;;5043375;28;20466;-72
2023/06/03 11:23:42;;;;;;;10.50;3.10;;;24.90;33.30;;;;;;5038259;28;20028;-72
2023/06/03 11:26:38;;;;;;;10.13;3.50;;;24.90;32.80;;;;;;5041770;28;20045;-72
2023/06/03 11:29:06;;;;;;;11.65;3.63;;;25.00;33.20;;;;;;5030598;28;20401;-73
2023/06/03 11:31:34;;;;;;;7.55;3.28;;;24.60;33.60;;;;;;5040185;28;20094;-73
2023/06/03 11:34:22;;;;;;;9.02;3.30;;;24.30;33.40;;;;;;5036069;28;20057;-73
2023/06/03 11:36:53;;;;;;;9.82;3.35;;;24.60;33.20;;;;;;5040381;28;20029;-73
2023/06/03 11:39:21;;;;;;;7.32;3.08;;;24.00;33.10;;;;;;5037762;28;20037;-72
2023/06/03 11:42:03;;;;;;;6.78;2.72;;;24.00;32.60;;;;;;5041458;28;20040;-73
2023/06/03 11:44:30;;;;;;;6.60;2.83;;;24.30;33.80;;;;;;5038709;28;20063;-74
2023/06/03 11:46:56;;;;;;;6.93;2.83;;;23.80;33.70;;;;;;5035716;28;20394;-74
2023/06/03 11:49:22;;;;;;;9.52;3.03;;;23.80;33.60;;;;;;5036293;28;20033;-73
2023/06/03 11:51:51;;;;;;;11.00;3.50;;;23.60;33.70;;;;;;5041564;28;20056;-72
2023/06/03 11:54:20;;;;;;;7.13;2.95;;;23.80;33.40;;;;;;5037861;28;20017;-73
2023/06/03 11:56:46;;;;;;;6.13;2.92;;;23.90;33.60;;;;;;5038756;28;20041;-71
2023/06/03 11:59:15;;;;;;;11.07;3.35;;;23.40;34.30;;;;;;5039863;28;20025;-74
2023/06/03 12:02:00;;;;;;;7.30;2.50;;;23.60;35.00;;;;;;5042847;28;20045;-74
2023/06/03 12:04:26;;;;;;;9.07;2.90;;;24.20;33.40;;;;;;5037477;28;21491;-72
2023/06/03 12:06:52;;;;;;;8.40;2.85;;;24.30;32.20;;;;;;5038340;28;20474;-73
2023/06/03 12:09:20;;;;;;;6.75;2.10;;;23.90;32.10;;;;;;5038466;28;20029;-73
2023/06/03 12:11:46;;;;;;;8.45;2.58;;;23.90;33.10;;;;;;5039936;28;20040;-73
2023/06/03 12:14:37;;;;;;;12.15;2.58;;;24.20;32.30;;;;;;5039131;28;20032;-73
2023/06/03 12:17:12;;;;;;;7.18;2.50;;;24.20;30.30;;;;;;5034900;28;20044;-72
2023/06/03 12:19:49;;;;;;;7.78;2.80;;;24.00;32.00;;;;;;5041026;28;20723;-74
2023/06/03 12:22:25;;;;;;;8.15;2.90;;;23.80;32.20;;;;;;5038565;28;20076;-75
2023/06/03 12:24:51;;;;;;;8.43;2.78;;;23.90;31.90;;;;;;5040997;28;20048;-74
2023/06/03 12:27:25;;;;;;;6.45;2.35;;;24.00;31.60;;;;;;5028444;28;20044;-71
2023/06/03 12:29:56;;;;;;;8.60;2.50;;;24.00;33.00;;;;;;5034624;28;20032;-73
2023/06/03 12:32:23;;;;;;;8.68;2.67;;;23.90;31.20;;;;;;5041586;28;20041;-76
2023/06/03 12:34:50;;;;;;;5.65;2.30;;;23.70;31.90;;;;;;5035934;28;20474;-73
2023/06/03 12:37:27;;;;;;;9.07;2.30;;;23.80;31.00;;;;;;5036204;28;20049;-73
2023/06/03 12:39:53;;;;;;;8.32;2.25;;;24.10;31.60;;;;;;5055501;28;20043;-74
2023/06/03 12:42:21;;;;;;;7.95;2.60;;;24.50;31.60;;;;;;5037888;28;20048;-73